sensor_id;sensor_type;location;lat;lon;timestamp;P1;durP1;ratioP1;P2;durP2;ratioP2
49440;SDS011;35317;51.978;6.296;2023-02-28T00:03:16;15.23;;;8.27;;
49440;SDS011;35317;51.978;6.296;2023-02-28T00:08:16;15.38;;;9.13;;
49440;SDS011;35317;51.978;6.296;2023-02-28T00:13:17;13.63;;;8.68;;
49440;SDS011;35317;51.978;6.296;2023-02-28T00:18:18;18.50;;;9.30;;
49440;SDS011;35317;51.978;6.296;2023-02-28T00:23:18;14.43;;;8.65;;
49440;SDS011;35317;51.978;6.296;2023-02-28T00:28:19;14.80;;;8.45;;
49440;SDS011;35317;51.978;6.296;2023-02-28T00:33:21;13.65;;;8.52;;
49440;SDS011;35317;51.978;6.296;2023-02-28T00:38:21;15.40;;;8.45;;
49440;SDS011;35317;51.978;6.296;2023-02-28T00:43:22;17.33;;;8.43;;
49440;SDS011;35317;51.978;6.296;2023-02-28T00:48:23;17.88;;;9.50;;
49440;SDS011;35317;51.978;6.296;2023-02-28T00:53:24;13.88;;;7.90;;
49440;SDS011;35317;51.978;6.296;2023-02-28T00:58:24;14.38;;;7.82;;
49440;SDS011;35317;51.978;6.296;2023-02-28T01:03:25;13.90;;;7.57;;
49440;SDS011;35317;51.978;6.296;2023-02-28T01:08:26;14.13;;;8.70;;
49440;SDS011;35317;51.978;6.296;2023-02-28T01:13:27;17.20;;;8.30;;
49440;SDS011;35317;51.978;6.296;2023-02-28T01:18:28;14.65;;;8.02;;
49440;SDS011;35317;51.978;6.296;2023-02-28T01:23:29;16.95;;;9.02;;
49440;SDS011;35317;51.978;6.296;2023-02-28T01:28:29;12.73;;;7.85;;
49440;SDS011;35317;51.978;6.296;2023-02-28T01:33:30;13.50;;;7.97;;
49440;SDS011;35317;51.978;6.296;2023-02-28T01:38:32;14.13;;;7.60;;
49440;SDS011;35317;51.978;6.296;2023-02-28T01:48:45;14.50;;;7.30;;
49440;SDS011;35317;51.978;6.296;2023-02-28T01:53:49;11.60;;;6.93;;
49440;SDS011;35317;51.978;6.296;2023-02-28T01:58:56;11.88;;;7.53;;
49440;SDS011;35317;51.978;6.296;2023-02-28T02:04:01;13.27;;;7.70;;
49440;SDS011;35317;51.978;6.296;2023-02-28T02:09:02;15.32;;;7.75;;
49440;SDS011;35317;51.978;6.296;2023-02-28T02:14:17;14.00;;;7.60;;
49440;SDS011;35317;51.978;6.296;2023-02-28T02:25:22;14.90;;;8.07;;
49440;SDS011;35317;51.978;6.296;2023-02-28T02:31:16;15.20;;;7.97;;
49440;SDS011;35317;51.978;6.296;2023-02-28T02:36:42;9.35;;;7.00;;
49440;SDS011;35317;51.978;6.296;2023-02-28T02:42:00;13.90;;;7.63;;
49440;SDS011;35317;51.978;6.296;2023-02-28T02:47:12;12.50;;;7.70;;
49440;SDS011;35317;51.978;6.296;2023-02-28T02:52:18;19.00;;;8.32;;
49440;SDS011;35317;51.978;6.296;2023-02-28T02:57:25;12.65;;;7.90;;
49440;SDS011;35317;51.978;6.296;2023-02-28T03:02:38;17.27;;;8.23;;
49440;SDS011;35317;51.978;6.296;2023-02-28T03:07:41;12.77;;;7.93;;
49440;SDS011;35317;51.978;6.296;2023-02-28T03:12:47;14.98;;;7.88;;
49440;SDS011;35317;51.978;6.296;2023-02-28T03:23:16;12.20;;;7.70;;
49440;SDS011;35317;51.978;6.296;2023-02-28T03:28:36;14.50;;;7.75;;
49440;SDS011;35317;51.978;6.296;2023-02-28T03:34:04;14.63;;;8.13;;
49440;SDS011;35317;51.978;6.296;2023-02-28T03:44:39;12.82;;;7.90;;
49440;SDS011;35317;51.978;6.296;2023-02-28T03:49:56;11.40;;;7.57;;
49440;SDS011;35317;51.978;6.296;2023-02-28T03:55:10;12.70;;;7.32;;
49440;SDS011;35317;51.978;6.296;2023-02-28T04:05:20;13.93;;;6.95;;
49440;SDS011;35317;51.978;6.296;2023-02-28T04:10:22;12.65;;;7.80;;
49440;SDS011;35317;51.978;6.296;2023-02-28T04:15:23;12.27;;;7.07;;
49440;SDS011;35317;51.978;6.296;2023-02-28T04:20:24;14.10;;;6.65;;
49440;SDS011;35317;51.978;6.296;2023-02-28T04:25:25;12.70;;;6.72;;
49440;SDS011;35317;51.978;6.296;2023-02-28T04:30:26;18.52;;;7.13;;
49440;SDS011;35317;51.978;6.296;2023-02-28T04:35:26;14.98;;;6.82;;
49440;SDS011;35317;51.978;6.296;2023-02-28T04:40:27;13.20;;;6.93;;
49440;SDS011;35317;51.978;6.296;2023-02-28T04:45:28;10.88;;;5.90;;
49440;SDS011;35317;51.978;6.296;2023-02-28T04:50:32;11.02;;;6.68;;
49440;SDS011;35317;51.978;6.296;2023-02-28T04:55:32;9.63;;;6.20;;
49440;SDS011;35317;51.978;6.296;2023-02-28T05:00:33;11.77;;;7.15;;
49440;SDS011;35317;51.978;6.296;2023-02-28T05:05:34;10.63;;;6.70;;
49440;SDS011;35317;51.978;6.296;2023-02-28T05:10:35;11.52;;;6.38;;
49440;SDS011;35317;51.978;6.296;2023-02-28T05:15:36;11.27;;;6.72;;
49440;SDS011;35317;51.978;6.296;2023-02-28T05:20:37;12.30;;;6.35;;
49440;SDS011;35317;51.978;6.296;2023-02-28T05:25:38;11.73;;;6.50;;
49440;SDS011;35317;51.978;6.296;2023-02-28T05:30:39;11.65;;;6.63;;
49440;SDS011;35317;51.978;6.296;2023-02-28T05:35:41;13.70;;;6.32;;
49440;SDS011;35317;51.978;6.296;2023-02-28T05:40:44;14.10;;;6.60;;
49440;SDS011;35317;51.978;6.296;2023-02-28T05:45:45;13.77;;;6.85;;
49440;SDS011;35317;51.978;6.296;2023-02-28T05:50:46;13.38;;;6.50;;
49440;SDS011;35317;51.978;6.296;2023-02-28T05:55:47;11.40;;;6.50;;
49440;SDS011;35317;51.978;6.296;2023-02-28T06:00:47;11.77;;;6.15;;
49440;SDS011;35317;51.978;6.296;2023-02-28T06:05:49;9.88;;;6.15;;
49440;SDS011;35317;51.978;6.296;2023-02-28T06:10:50;11.27;;;6.70;;
49440;SDS011;35317;51.978;6.296;2023-02-28T06:15:51;13.02;;;6.28;;
49440;SDS011;35317;51.978;6.296;2023-02-28T06:20:54;12.30;;;6.57;;
49440;SDS011;35317;51.978;6.296;2023-02-28T06:25:55;12.35;;;6.70;;
49440;SDS011;35317;51.978;6.296;2023-02-28T06:30:59;10.03;;;6.80;;
49440;SDS011;35317;51.978;6.296;2023-02-28T06:35:59;9.48;;;6.20;;
49440;SDS011;35317;51.978;6.296;2023-02-28T06:41:01;9.18;;;5.68;;
49440;SDS011;35317;51.978;6.296;2023-02-28T06:46:04;11.77;;;6.30;;
49440;SDS011;35317;51.978;6.296;2023-02-28T06:51:09;10.05;;;5.57;;
49440;SDS011;35317;51.978;6.296;2023-02-28T06:56:17;13.25;;;6.03;;
49440;SDS011;35317;51.978;6.296;2023-02-28T07:01:20;17.03;;;5.67;;
49440;SDS011;35317;51.978;6.296;2023-02-28T07:06:24;9.70;;;5.68;;
49440;SDS011;35317;51.978;6.296;2023-02-28T07:11:25;12.38;;;6.10;;
49440;SDS011;35317;51.978;6.296;2023-02-28T07:16:27;9.05;;;5.32;;
49440;SDS011;35317;51.978;6.296;2023-02-28T07:21:28;10.35;;;5.10;;
49440;SDS011;35317;51.978;6.296;2023-02-28T07:26:29;9.52;;;5.28;;
49440;SDS011;35317;51.978;6.296;2023-02-28T07:31:29;11.57;;;5.90;;
49440;SDS011;35317;51.978;6.296;2023-02-28T07:36:30;13.20;;;6.18;;
49440;SDS011;35317;51.978;6.296;2023-02-28T07:41:31;11.23;;;5.80;;
49440;SDS011;35317;51.978;6.296;2023-02-28T07:46:33;11.40;;;5.57;;
49440;SDS011;35317;51.978;6.296;2023-02-28T07:51:35;8.65;;;4.60;;
49440;SDS011;35317;51.978;6.296;2023-02-28T07:56:36;8.05;;;4.78;;
49440;SDS011;35317;51.978;6.296;2023-02-28T08:01:37;9.70;;;4.93;;
49440;SDS011;35317;51.978;6.296;2023-02-28T08:06:38;6.78;;;4.22;;
49440;SDS011;35317;51.978;6.296;2023-02-28T08:11:38;5.72;;;3.72;;
49440;SDS011;35317;51.978;6.296;2023-02-28T08:16:39;7.10;;;3.70;;
49440;SDS011;35317;51.978;6.296;2023-02-28T08:21:40;5.90;;;3.40;;
49440;SDS011;35317;51.978;6.296;2023-02-28T08:26:41;5.10;;;3.33;;
49440;SDS011;35317;51.978;6.296;2023-02-28T08:31:42;4.47;;;3.00;;
49440;SDS011;35317;51.978;6.296;2023-02-28T08:36:43;6.43;;;3.15;;
49440;SDS011;35317;51.978;6.296;2023-02-28T08:41:47;5.35;;;2.95;;
49440;SDS011;35317;51.978;6.296;2023-02-28T08:46:48;6.53;;;3.10;;
49440;SDS011;35317;51.978;6.296;2023-02-28T08:51:48;6.53;;;3.75;;
49440;SDS011;35317;51.978;6.296;2023-02-28T08:56:49;4.97;;;3.20;;
49440;SDS011;35317;51.978;6.296;2023-02-28T09:01:50;3.42;;;2.67;;
49440;SDS011;35317;51.978;6.296;2023-02-28T09:06:51;5.38;;;2.80;;
49440;SDS011;35317;51.978;6.296;2023-02-28T09:11:51;3.10;;;1.50;;
49440;SDS011;35317;51.978;6.296;2023-02-28T09:16:52;3.55;;;2.00;;
49440;SDS011;35317;51.978;6.296;2023-02-28T09:21:53;3.53;;;1.60;;
49440;SDS011;35317;51.978;6.296;2023-02-28T09:26:54;1.85;;;1.02;;
49440;SDS011;35317;51.978;6.296;2023-02-28T09:31:54;2.97;;;1.20;;
49440;SDS011;35317;51.978;6.296;2023-02-28T09:36:58;2.47;;;1.40;;
49440;SDS011;35317;51.978;6.296;2023-02-28T09:41:59;2.40;;;1.60;;
49440;SDS011;35317;51.978;6.296;2023-02-28T09:47:07;2.35;;;1.30;;
49440;SDS011;35317;51.978;6.296;2023-02-28T09:52:31;2.83;;;1.60;;
49440;SDS011;35317;51.978;6.296;2023-02-28T09:57:36;3.40;;;1.45;;
49440;SDS011;35317;51.978;6.296;2023-02-28T10:08:18;1.63;;;1.30;;
49440;SDS011;35317;51.978;6.296;2023-02-28T10:25:21;1.92;;;1.40;;
49440;SDS011;35317;51.978;6.296;2023-02-28T10:30:25;1.67;;;1.20;;
49440;SDS011;35317;51.978;6.296;2023-02-28T10:35:26;2.55;;;1.33;;
49440;SDS011;35317;51.978;6.296;2023-02-28T10:40:30;2.50;;;1.35;;
49440;SDS011;35317;51.978;6.296;2023-02-28T10:45:35;2.60;;;1.38;;
49440;SDS011;35317;51.978;6.296;2023-02-28T10:50:42;2.70;;;1.20;;
49440;SDS011;35317;51.978;6.296;2023-02-28T11:01:21;2.92;;;1.70;;
49440;SDS011;35317;51.978;6.296;2023-02-28T11:06:32;2.30;;;1.23;;
49440;SDS011;35317;51.978;6.296;2023-02-28T11:11:44;3.47;;;1.63;;
49440;SDS011;35317;51.978;6.296;2023-02-28T11:16:47;4.40;;;1.60;;
49440;SDS011;35317;51.978;6.296;2023-02-28T11:21:54;2.40;;;1.70;;
49440;SDS011;35317;51.978;6.296;2023-02-28T11:26:57;2.00;;;1.50;;
49440;SDS011;35317;51.978;6.296;2023-02-28T11:37:11;4.53;;;2.00;;
49440;SDS011;35317;51.978;6.296;2023-02-28T11:48:07;3.03;;;1.88;;
49440;SDS011;35317;51.978;6.296;2023-02-28T11:58:43;3.03;;;1.83;;
49440;SDS011;35317;51.978;6.296;2023-02-28T12:36:20;4.30;;;1.65;;
49440;SDS011;35317;51.978;6.296;2023-02-28T12:41:26;2.67;;;1.50;;
49440;SDS011;35317;51.978;6.296;2023-02-28T12:46:43;1.27;;;1.00;;
49440;SDS011;35317;51.978;6.296;2023-02-28T12:51:50;2.42;;;1.42;;
49440;SDS011;35317;51.978;6.296;2023-02-28T12:57:02;1.83;;;1.10;;
49440;SDS011;35317;51.978;6.296;2023-02-28T13:07:47;1.67;;;1.30;;
49440;SDS011;35317;51.978;6.296;2023-02-28T13:13:18;3.10;;;1.30;;
49440;SDS011;35317;51.978;6.296;2023-02-28T13:18:34;1.65;;;1.30;;
49440;SDS011;35317;51.978;6.296;2023-02-28T13:28:57;1.70;;;1.10;;
49440;SDS011;35317;51.978;6.296;2023-02-28T13:34:22;2.22;;;1.70;;
49440;SDS011;35317;51.978;6.296;2023-02-28T13:45:18;3.28;;;1.25;;
49440;SDS011;35317;51.978;6.296;2023-02-28T13:55:31;2.63;;;1.40;;
49440;SDS011;35317;51.978;6.296;2023-02-28T14:00:59;4.32;;;1.40;;
49440;SDS011;35317;51.978;6.296;2023-02-28T14:06:23;3.58;;;1.60;;
49440;SDS011;35317;51.978;6.296;2023-02-28T14:11:30;2.53;;;1.63;;
49440;SDS011;35317;51.978;6.296;2023-02-28T14:16:41;2.63;;;1.58;;
49440;SDS011;35317;51.978;6.296;2023-02-28T14:37:32;5.57;;;1.73;;
49440;SDS011;35317;51.978;6.296;2023-02-28T14:42:39;2.00;;;1.40;;
49440;SDS011;35317;51.978;6.296;2023-02-28T14:47:43;2.47;;;1.75;;
49440;SDS011;35317;51.978;6.296;2023-02-28T14:52:44;2.70;;;1.50;;
49440;SDS011;35317;51.978;6.296;2023-02-28T14:57:59;2.92;;;1.77;;
49440;SDS011;35317;51.978;6.296;2023-02-28T15:08:37;5.93;;;1.83;;
49440;SDS011;35317;51.978;6.296;2023-02-28T15:13:42;3.78;;;2.03;;
49440;SDS011;35317;51.978;6.296;2023-02-28T15:18:48;3.30;;;1.73;;
49440;SDS011;35317;51.978;6.296;2023-02-28T15:24:12;3.72;;;2.28;;
49440;SDS011;35317;51.978;6.296;2023-02-28T15:29:24;4.28;;;2.35;;
49440;SDS011;35317;51.978;6.296;2023-02-28T15:34:33;3.60;;;1.92;;
49440;SDS011;35317;51.978;6.296;2023-02-28T15:39:41;3.78;;;1.90;;
49440;SDS011;35317;51.978;6.296;2023-02-28T15:44:44;2.80;;;1.80;;
49440;SDS011;35317;51.978;6.296;2023-02-28T15:49:47;4.15;;;2.05;;
49440;SDS011;35317;51.978;6.296;2023-02-28T15:55:08;3.05;;;2.22;;
49440;SDS011;35317;51.978;6.296;2023-02-28T16:00:23;4.38;;;2.00;;
49440;SDS011;35317;51.978;6.296;2023-02-28T16:05:30;4.45;;;2.20;;
49440;SDS011;35317;51.978;6.296;2023-02-28T16:10:35;3.05;;;1.95;;
49440;SDS011;35317;51.978;6.296;2023-02-28T16:15:37;3.35;;;1.73;;
49440;SDS011;35317;51.978;6.296;2023-02-28T16:20:42;6.88;;;2.10;;
49440;SDS011;35317;51.978;6.296;2023-02-28T16:25:44;6.03;;;2.20;;
49440;SDS011;35317;51.978;6.296;2023-02-28T16:30:50;4.13;;;2.00;;
49440;SDS011;35317;51.978;6.296;2023-02-28T16:35:52;2.97;;;2.20;;
49440;SDS011;35317;51.978;6.296;2023-02-28T16:40:53;2.67;;;2.00;;
49440;SDS011;35317;51.978;6.296;2023-02-28T16:45:59;3.40;;;2.13;;
49440;SDS011;35317;51.978;6.296;2023-02-28T16:51:01;4.07;;;2.47;;
49440;SDS011;35317;51.978;6.296;2023-02-28T16:56:04;2.83;;;2.40;;
49440;SDS011;35317;51.978;6.296;2023-02-28T17:01:06;3.95;;;3.00;;
49440;SDS011;35317;51.978;6.296;2023-02-28T17:06:15;6.10;;;2.85;;
49440;SDS011;35317;51.978;6.296;2023-02-28T17:11:27;5.90;;;3.30;;
49440;SDS011;35317;51.978;6.296;2023-02-28T17:16:29;6.57;;;3.40;;
49440;SDS011;35317;51.978;6.296;2023-02-28T17:21:33;5.18;;;3.33;;
49440;SDS011;35317;51.978;6.296;2023-02-28T17:26:34;5.75;;;3.40;;
49440;SDS011;35317;51.978;6.296;2023-02-28T17:31:35;9.32;;;4.97;;
49440;SDS011;35317;51.978;6.296;2023-02-28T17:36:38;12.85;;;5.70;;
49440;SDS011;35317;51.978;6.296;2023-02-28T17:41:40;9.05;;;5.30;;
49440;SDS011;35317;51.978;6.296;2023-02-28T17:46:41;19.85;;;9.63;;
49440;SDS011;35317;51.978;6.296;2023-02-28T17:51:43;23.60;;;11.82;;
49440;SDS011;35317;51.978;6.296;2023-02-28T17:56:44;25.63;;;13.63;;
49440;SDS011;35317;51.978;6.296;2023-02-28T18:01:45;28.40;;;14.63;;
49440;SDS011;35317;51.978;6.296;2023-02-28T18:06:45;19.80;;;10.85;;
49440;SDS011;35317;51.978;6.296;2023-02-28T18:11:46;18.98;;;9.43;;
49440;SDS011;35317;51.978;6.296;2023-02-28T18:16:51;9.40;;;5.45;;
49440;SDS011;35317;51.978;6.296;2023-02-28T18:21:53;7.55;;;4.43;;
49440;SDS011;35317;51.978;6.296;2023-02-28T18:26:54;9.75;;;4.72;;
49440;SDS011;35317;51.978;6.296;2023-02-28T18:31:55;22.05;;;10.45;;
49440;SDS011;35317;51.978;6.296;2023-02-28T18:36:56;18.40;;;8.60;;
49440;SDS011;35317;51.978;6.296;2023-02-28T18:41:57;31.40;;;11.35;;
49440;SDS011;35317;51.978;6.296;2023-02-28T18:46:58;26.20;;;10.80;;
49440;SDS011;35317;51.978;6.296;2023-02-28T18:51:59;18.40;;;8.80;;
49440;SDS011;35317;51.978;6.296;2023-02-28T18:57:00;42.05;;;19.08;;
49440;SDS011;35317;51.978;6.296;2023-02-28T19:02:00;33.28;;;15.70;;
49440;SDS011;35317;51.978;6.296;2023-02-28T19:07:01;28.65;;;11.55;;
49440;SDS011;35317;51.978;6.296;2023-02-28T19:12:02;25.95;;;14.80;;
49440;SDS011;35317;51.978;6.296;2023-02-28T19:17:03;26.83;;;17.05;;
49440;SDS011;35317;51.978;6.296;2023-02-28T19:22:04;23.42;;;17.13;;
49440;SDS011;35317;51.978;6.296;2023-02-28T19:27:07;14.32;;;9.68;;
49440;SDS011;35317;51.978;6.296;2023-02-28T19:32:19;13.90;;;9.45;;
49440;SDS011;35317;51.978;6.296;2023-02-28T19:37:20;16.23;;;10.07;;
49440;SDS011;35317;51.978;6.296;2023-02-28T19:42:21;15.88;;;9.48;;
49440;SDS011;35317;51.978;6.296;2023-02-28T19:47:22;18.95;;;10.05;;
49440;SDS011;35317;51.978;6.296;2023-02-28T19:52:23;18.45;;;9.52;;
49440;SDS011;35317;51.978;6.296;2023-02-28T19:57:24;14.85;;;10.15;;
49440;SDS011;35317;51.978;6.296;2023-02-28T20:02:25;18.00;;;10.90;;
49440;SDS011;35317;51.978;6.296;2023-02-28T20:07:26;17.35;;;9.57;;
49440;SDS011;35317;51.978;6.296;2023-02-28T20:12:27;15.48;;;10.15;;
49440;SDS011;35317;51.978;6.296;2023-02-28T20:17:28;16.52;;;10.27;;
49440;SDS011;35317;51.978;6.296;2023-02-28T20:22:32;13.57;;;8.63;;
49440;SDS011;35317;51.978;6.296;2023-02-28T20:27:39;12.40;;;8.10;;
49440;SDS011;35317;51.978;6.296;2023-02-28T20:32:40;10.70;;;7.28;;
49440;SDS011;35317;51.978;6.296;2023-02-28T20:37:41;12.63;;;7.85;;
49440;SDS011;35317;51.978;6.296;2023-02-28T20:42:41;12.10;;;8.00;;
49440;SDS011;35317;51.978;6.296;2023-02-28T20:47:42;17.35;;;9.95;;
49440;SDS011;35317;51.978;6.296;2023-02-28T20:52:43;15.80;;;9.32;;
49440;SDS011;35317;51.978;6.296;2023-02-28T20:57:46;19.23;;;10.95;;
49440;SDS011;35317;51.978;6.296;2023-02-28T21:02:48;23.42;;;11.90;;
49440;SDS011;35317;51.978;6.296;2023-02-28T21:07:49;25.73;;;12.68;;
49440;SDS011;35317;51.978;6.296;2023-02-28T21:12:50;23.55;;;13.63;;
49440;SDS011;35317;51.978;6.296;2023-02-28T21:17:56;25.40;;;14.23;;
49440;SDS011;35317;51.978;6.296;2023-02-28T21:22:59;24.58;;;14.60;;
49440;SDS011;35317;51.978;6.296;2023-02-28T21:28:00;30.02;;;15.50;;
49440;SDS011;35317;51.978;6.296;2023-02-28T21:33:01;39.00;;;17.75;;
49440;SDS011;35317;51.978;6.296;2023-02-28T21:38:02;29.77;;;15.30;;
49440;SDS011;35317;51.978;6.296;2023-02-28T21:43:06;36.25;;;16.58;;
49440;SDS011;35317;51.978;6.296;2023-02-28T21:48:06;28.13;;;14.40;;
49440;SDS011;35317;51.978;6.296;2023-02-28T21:53:09;29.30;;;15.50;;
49440;SDS011;35317;51.978;6.296;2023-02-28T21:58:11;34.13;;;16.25;;
49440;SDS011;35317;51.978;6.296;2023-02-28T22:03:13;23.10;;;12.45;;
49440;SDS011;35317;51.978;6.296;2023-02-28T22:08:13;23.23;;;12.07;;
49440;SDS011;35317;51.978;6.296;2023-02-28T22:13:14;25.88;;;9.25;;
49440;SDS011;35317;51.978;6.296;2023-02-28T22:18:15;16.17;;;8.90;;
49440;SDS011;35317;51.978;6.296;2023-02-28T22:23:16;18.67;;;10.13;;
49440;SDS011;35317;51.978;6.296;2023-02-28T22:28:16;18.40;;;10.27;;
49440;SDS011;35317;51.978;6.296;2023-02-28T22:33:17;22.10;;;11.68;;
49440;SDS011;35317;51.978;6.296;2023-02-28T22:38:18;18.70;;;10.15;;
49440;SDS011;35317;51.978;6.296;2023-02-28T22:43:19;13.70;;;8.55;;
49440;SDS011;35317;51.978;6.296;2023-02-28T22:48:20;16.25;;;10.15;;
49440;SDS011;35317;51.978;6.296;2023-02-28T22:53:21;14.93;;;9.45;;
49440;SDS011;35317;51.978;6.296;2023-02-28T22:58:21;17.77;;;9.93;;
49440;SDS011;35317;51.978;6.296;2023-02-28T23:03:23;17.00;;;9.48;;
49440;SDS011;35317;51.978;6.296;2023-02-28T23:08:25;17.40;;;9.63;;
49440;SDS011;35317;51.978;6.296;2023-02-28T23:13:25;18.10;;;10.20;;
49440;SDS011;35317;51.978;6.296;2023-02-28T23:18:26;18.95;;;10.32;;
49440;SDS011;35317;51.978;6.296;2023-02-28T23:23:27;20.13;;;10.52;;
49440;SDS011;35317;51.978;6.296;2023-02-28T23:28:28;20.33;;;11.23;;
49440;SDS011;35317;51.978;6.296;2023-02-28T23:33:30;20.88;;;11.35;;
49440;SDS011;35317;51.978;6.296;2023-02-28T23:38:32;19.52;;;11.02;;
49440;SDS011;35317;51.978;6.296;2023-02-28T23:43:33;19.45;;;10.45;;
49440;SDS011;35317;51.978;6.296;2023-02-28T23:48:34;17.63;;;10.57;;
49440;SDS011;35317;51.978;6.296;2023-02-28T23:53:36;20.38;;;11.55;;
49440;SDS011;35317;51.978;6.296;2023-02-28T23:58:40;25.23;;;12.90;;
